createdAt,value
2019-04-25T00:01:26.398Z,55.98
2019-04-25T00:04:02.006Z,55.90
2019-04-25T00:06:37.272Z,54.77
2019-04-25T00:09:15.330Z,53.73
2019-04-25T00:11:49.700Z,53.48
2019-04-25T00:14:24.446Z,54.68
2019-04-25T00:16:58.552Z,55.22
2019-04-25T00:19:32.969Z,55.53
2019-04-25T00:22:16.708Z,55.47
2019-04-25T00:25:12.931Z,55.34
2019-04-25T00:27:37.206Z,55.31
2019-04-25T00:30:11.578Z,54.97
2019-04-25T00:32:46.081Z,54.05
2019-04-25T00:35:21.654Z,54.39
2019-04-25T00:37:55.888Z,53.79
2019-04-25T00:40:31.807Z,54.73
2019-04-25T00:43:07.718Z,54.67
2019-04-25T00:45:43.601Z,54.67
2019-04-25T00:48:18.337Z,54.73
2019-04-25T00:50:54.554Z,54.81
2019-04-25T00:53:28.520Z,54.14
2019-04-25T00:56:02.886Z,53.69
2019-04-25T00:58:58.672Z,54.82
2019-04-25T01:01:51.840Z,55.57
2019-04-25T01:04:27.638Z,55.88
2019-04-25T01:07:01.615Z,55.68
2019-04-25T01:09:36.157Z,54.51
2019-04-25T01:12:11.950Z,54.55
2019-04-25T01:14:46.525Z,54.36
2019-04-25T01:17:21.158Z,53.84
2019-04-25T01:19:57.915Z,54.34
2019-04-25T01:22:32.315Z,55.53
2019-04-25T01:25:06.627Z,55.58
2019-04-25T01:27:40.832Z,55.37
2019-04-25T01:30:18.612Z,55.34
2019-04-25T01:32:54.303Z,55.48
2019-04-25T01:35:44.915Z,55.48
2019-04-25T01:38:24.999Z,54.88
2019-04-25T01:41:21.324Z,53.39
2019-04-25T01:44:01.951Z,55.12
2019-04-25T01:46:36.624Z,55.99
2019-04-25T01:49:11.149Z,55.79
2019-04-25T01:51:45.727Z,55.86
2019-04-25T01:54:20.155Z,55.86
2019-04-25T01:56:56.133Z,55.80
2019-04-25T01:59:30.330Z,55.72
2019-04-25T02:02:06.738Z,54.87
2019-04-25T02:04:41.953Z,55.22
2019-04-25T02:07:16.577Z,56.15
2019-04-25T02:09:50.936Z,56.07
2019-04-25T02:12:49.951Z,55.58
2019-04-25T02:15:29.131Z,55.53
2019-04-25T02:18:03.797Z,55.59
2019-04-25T02:20:38.047Z,55.62
2019-04-25T02:23:11.979Z,54.92
2019-04-25T02:25:46.391Z,54.59
2019-04-25T02:28:24.106Z,55.89
2019-04-25T02:31:00.739Z,56.69
2019-04-25T02:33:34.738Z,56.63
2019-04-25T02:36:09.053Z,56.70
2019-04-25T02:38:44.151Z,56.65
2019-04-25T02:41:18.565Z,55.49
2019-04-25T02:43:57.902Z,55.78
2019-04-25T02:46:55.857Z,54.96
2019-04-25T02:49:40.829Z,55.22
2019-04-25T02:52:30.319Z,56.60
2019-04-25T02:55:10.496Z,57.14
2019-04-25T02:57:40.526Z,57.20
2019-04-25T03:00:25.020Z,57.12
2019-04-25T03:03:01.016Z,57.04
2019-04-25T03:05:35.851Z,57.04
2019-04-25T03:08:10.664Z,56.07
2019-04-25T03:10:45.002Z,55.63
2019-04-25T03:13:19.258Z,56.06
2019-04-25T03:15:55.747Z,56.64
2019-04-25T03:18:31.395Z,56.51
2019-04-25T03:21:16.951Z,56.55
2019-04-25T03:23:50.775Z,56.59
2019-04-25T03:26:25.439Z,56.63
2019-04-25T03:28:59.825Z,56.62
2019-04-25T03:31:34.968Z,56.02
2019-04-25T03:34:14.043Z,55.80
2019-04-25T03:36:45.614Z,55.63
2019-04-25T03:39:19.823Z,55.17
2019-04-25T03:41:54.053Z,54.77
2019-04-25T03:44:28.376Z,53.88
2019-04-25T03:47:05.878Z,53.79
2019-04-25T03:49:39.161Z,53.63
2019-04-25T03:52:14.204Z,53.57
2019-04-25T03:54:48.709Z,53.60
2019-04-25T03:57:23.885Z,53.44
2019-04-25T03:59:58.818Z,53.41
2019-04-25T04:02:34.377Z,53.32
2019-04-25T04:05:09.631Z,53.23
2019-04-25T04:07:44.186Z,53.08
2019-04-25T04:10:21.106Z,53.15
2019-04-25T04:12:55.359Z,53.30
2019-04-25T04:15:29.916Z,52.65
2019-04-25T04:18:17.225Z,52.82
2019-04-25T04:21:17.412Z,52.92
2019-04-25T04:24:01.191Z,52.95
2019-04-25T04:26:36.038Z,52.82
2019-04-25T04:29:12.432Z,52.83
2019-04-25T04:31:48.073Z,52.80
2019-04-25T04:34:23.569Z,52.82
2019-04-25T04:36:59.061Z,52.89
2019-04-25T04:39:33.971Z,52.96
2019-04-25T04:42:09.572Z,52.92
2019-04-25T04:44:44.524Z,52.06
2019-04-25T04:47:19.696Z,52.30
2019-04-25T04:49:54.792Z,52.18
2019-04-25T04:52:29.891Z,51.56
2019-04-25T04:55:08.403Z,51.24
2019-04-25T04:57:44.586Z,51.26
2019-04-25T05:00:19.458Z,51.18
2019-04-25T05:03:01.980Z,51.03
2019-04-25T05:06:01.028Z,50.96
2019-04-25T05:08:46.226Z,50.84
2019-04-25T05:11:20.964Z,50.89
2019-04-25T05:13:55.742Z,51.15
2019-04-25T05:16:30.639Z,51.20
2019-04-25T05:19:05.855Z,51.21
2019-04-25T05:21:40.736Z,51.20
2019-04-25T05:24:16.426Z,51.12
2019-04-25T05:26:53.989Z,51.26
2019-04-25T05:29:29.693Z,51.22
2019-04-25T05:32:04.845Z,51.12
2019-04-25T05:34:40.290Z,51.09
2019-04-25T05:37:15.515Z,51.07
2019-04-25T05:39:51.301Z,51.00
2019-04-25T05:42:44.658Z,51.02
2019-04-25T05:45:25.759Z,50.90
2019-04-25T05:48:00.383Z,50.89
2019-04-25T05:50:34.613Z,50.74
2019-04-25T05:53:08.975Z,50.75
2019-04-25T05:55:44.140Z,51.11
2019-04-25T05:58:20.450Z,51.34
2019-04-25T06:00:55.657Z,51.48
2019-04-25T06:03:29.959Z,52.18
2019-04-25T06:06:04.369Z,53.43
2019-04-25T06:08:44.197Z,57.53
2019-04-25T06:11:33.551Z,57.84
2019-04-25T06:14:10.057Z,57.43
2019-04-25T06:16:44.545Z,57.05
2019-04-25T06:19:40.378Z,56.70
2019-04-25T06:22:19.934Z,56.40
2019-04-25T06:25:06.087Z,56.11
2019-04-25T06:27:51.165Z,55.83
2019-04-25T06:30:27.775Z,55.63
2019-04-25T06:33:03.316Z,55.49
2019-04-25T06:35:37.753Z,55.33
2019-04-25T06:38:13.358Z,55.14
2019-04-25T06:40:49.011Z,54.93
2019-04-25T06:43:24.545Z,54.78
2019-04-25T06:46:16.796Z,54.65
2019-04-25T06:48:55.713Z,54.58
2019-04-25T06:51:48.570Z,54.49
2019-04-25T06:54:25.701Z,54.35
2019-04-25T06:57:00.270Z,54.22
2019-04-25T06:59:34.588Z,54.06
2019-04-25T07:02:09.534Z,53.96
2019-04-25T07:04:45.622Z,53.93
2019-04-25T07:07:20.960Z,53.80
2019-04-25T07:09:55.574Z,53.65
2019-04-25T07:12:32.473Z,53.55
2019-04-25T07:15:07.433Z,53.32
2019-04-25T07:17:43.639Z,53.29
2019-04-25T07:20:20.831Z,53.37
2019-04-25T07:22:55.606Z,53.53
2019-04-25T07:25:35.326Z,53.70
2019-04-25T07:28:39.567Z,53.84
2019-04-25T07:31:39.728Z,54.05
2019-04-25T07:34:17.817Z,54.17
2019-04-25T07:36:53.454Z,54.39
2019-04-25T07:39:27.790Z,54.48
2019-04-25T07:42:04.051Z,54.46
2019-04-25T07:44:49.835Z,54.50
2019-04-25T07:47:15.882Z,54.44
2019-04-25T07:49:50.630Z,54.42
2019-04-25T07:52:27.085Z,54.39
2019-04-25T07:55:01.439Z,53.98
2019-04-25T07:57:36.938Z,54.03
2019-04-25T08:00:15.850Z,53.98
2019-04-25T08:02:50.713Z,53.90
2019-04-25T08:05:25.017Z,53.92
2019-04-25T08:08:00.408Z,53.83
2019-04-25T08:10:56.702Z,53.62
2019-04-25T08:13:35.408Z,53.45
2019-04-25T08:16:11.240Z,53.52
2019-04-25T08:18:46.370Z,53.55
2019-04-25T08:21:23.887Z,53.54
2019-04-25T08:23:59.000Z,53.60
2019-04-25T08:26:35.032Z,53.54
2019-04-25T08:29:10.113Z,53.48
2019-04-25T08:31:45.297Z,53.42
2019-04-25T08:34:21.080Z,53.16
2019-04-25T08:36:55.330Z,52.86
2019-04-25T08:39:30.447Z,52.51
2019-04-25T08:42:04.682Z,52.27
2019-04-25T08:44:39.341Z,52.06
2019-04-25T08:47:14.449Z,51.84
2019-04-25T08:50:07.693Z,51.59
2019-04-25T08:52:42.854Z,51.34
2019-04-25T08:55:38.226Z,51.18
2019-04-25T08:58:23.661Z,50.92
2019-04-25T09:01:15.393Z,50.76
2019-04-25T09:04:05.165Z,50.48
2019-04-25T09:06:40.387Z,50.23
2019-04-25T09:09:15.052Z,50.08
2019-04-25T09:11:49.077Z,49.94
2019-04-25T09:14:24.544Z,49.78
2019-04-25T09:16:59.042Z,49.70
2019-04-25T09:19:35.869Z,49.49
2019-04-25T09:22:10.412Z,49.65
2019-04-25T09:24:48.136Z,49.67
2019-04-25T09:27:23.638Z,48.58
2019-04-25T09:29:58.378Z,47.56
2019-04-25T09:32:33.800Z,46.44
2019-04-25T09:35:09.360Z,45.58
2019-04-25T09:37:44.940Z,44.74
2019-04-25T09:40:20.141Z,43.95
2019-04-25T09:42:54.538Z,43.15
2019-04-25T09:45:50.653Z,42.43
2019-04-25T09:48:44.609Z,41.64
2019-04-25T09:51:50.747Z,40.87
2019-04-25T09:54:55.936Z,40.62
2019-04-25T09:57:55.137Z,40.03
2019-04-25T10:00:36.601Z,39.59
2019-04-25T10:03:10.981Z,40.13
2019-04-25T10:05:45.136Z,40.74
2019-04-25T10:08:20.926Z,40.88
2019-04-25T10:10:55.420Z,41.60
2019-04-25T10:13:30.179Z,42.48
2019-04-25T10:16:11.560Z,43.69
2019-04-25T10:18:47.803Z,45.03
2019-04-25T10:21:24.016Z,46.34
2019-04-25T10:23:58.420Z,47.02
2019-04-25T10:26:34.785Z,47.65
2019-04-25T10:29:09.670Z,48.03
2019-04-25T10:31:45.152Z,48.41
2019-04-25T10:34:19.725Z,48.55
2019-04-25T10:36:57.032Z,48.69
2019-04-25T10:39:33.824Z,48.79
2019-04-25T10:42:08.133Z,48.98
2019-04-25T10:44:42.187Z,49.33
2019-04-25T10:47:16.627Z,49.41
2019-04-25T10:49:53.299Z,49.41
2019-04-25T10:52:27.495Z,49.43
2019-04-25T10:55:04.465Z,49.56
2019-04-25T10:57:38.926Z,49.76
2019-04-25T11:00:20.125Z,49.64
2019-04-25T11:02:55.719Z,49.63
2019-04-25T11:05:30.064Z,49.66
2019-04-25T11:08:04.339Z,49.65
2019-04-25T11:10:38.647Z,49.62
2019-04-25T11:13:14.367Z,49.83
2019-04-25T11:15:49.776Z,50.10
2019-04-25T11:18:24.029Z,50.22
2019-04-25T11:20:59.240Z,50.27
2019-04-25T11:23:33.660Z,50.30
2019-04-25T11:26:08.359Z,50.06
2019-04-25T11:28:45.346Z,50.11
2019-04-25T11:31:28.323Z,50.22
2019-04-25T11:34:03.589Z,50.79
2019-04-25T11:36:38.111Z,50.45
2019-04-25T11:39:33.084Z,50.52
2019-04-25T11:42:13.098Z,50.41
2019-04-25T11:44:49.796Z,49.92
2019-04-25T11:47:24.411Z,49.91
2019-04-25T11:49:58.674Z,50.03
2019-04-25T11:52:33.631Z,49.80
2019-04-25T11:55:10.407Z,49.49
2019-04-25T11:57:48.677Z,49.63
2019-04-25T12:00:24.625Z,49.45
2019-04-25T12:02:58.953Z,49.47
2019-04-25T12:05:34.282Z,49.30
2019-04-25T12:08:09.111Z,49.23
2019-04-25T12:10:45.812Z,49.47
2019-04-25T12:13:19.273Z,49.49
2019-04-25T12:15:54.834Z,49.72
2019-04-25T12:18:29.077Z,49.89
2019-04-25T12:21:04.261Z,50.14
2019-04-25T12:23:39.658Z,50.23
2019-04-25T12:26:14.318Z,50.37
2019-04-25T12:28:49.305Z,50.33
2019-04-25T12:31:23.838Z,50.41
2019-04-25T12:33:58.039Z,50.32
2019-04-25T12:36:33.999Z,50.30
2019-04-25T12:39:10.125Z,50.17
2019-04-25T12:41:46.764Z,50.36
2019-04-25T12:44:49.240Z,50.23
2019-04-25T12:47:25.597Z,50.13
2019-04-25T12:49:59.547Z,50.26
2019-04-25T12:52:33.698Z,50.29
2019-04-25T12:55:10.342Z,50.25
2019-04-25T12:57:44.533Z,50.12
2019-04-25T13:00:24.325Z,50.08
2019-04-25T13:02:59.012Z,50.15
2019-04-25T13:05:34.224Z,50.36
2019-04-25T13:08:08.529Z,50.46
2019-04-25T13:10:44.359Z,50.42
2019-04-25T13:13:20.108Z,50.30
2019-04-25T13:15:54.331Z,49.83
2019-04-25T13:18:28.579Z,47.87
2019-04-25T13:21:03.530Z,45.98
2019-04-25T13:23:37.837Z,45.28
2019-04-25T13:26:12.079Z,45.02
2019-04-25T13:29:10.775Z,44.95
2019-04-25T13:32:03.502Z,45.39
2019-04-25T13:34:44.835Z,46.19
2019-04-25T13:37:19.221Z,45.42
2019-04-25T13:39:54.162Z,44.54
2019-04-25T13:42:28.392Z,45.23
2019-04-25T13:45:03.540Z,45.85
2019-04-25T13:47:39.228Z,46.21
2019-04-25T13:50:14.686Z,46.44
2019-04-25T13:52:49.119Z,46.61
2019-04-25T13:55:25.004Z,46.76
2019-04-25T13:57:59.320Z,46.88
2019-04-25T14:00:34.895Z,46.98
2019-04-25T14:03:09.500Z,47.08
2019-04-25T14:05:45.310Z,47.18
2019-04-25T14:08:20.896Z,47.26
2019-04-25T14:10:55.056Z,47.34
2019-04-25T14:13:30.129Z,47.38
2019-04-25T14:16:33.578Z,47.45
2019-04-25T14:19:22.529Z,47.47
2019-04-25T14:21:59.158Z,47.50
2019-04-25T14:24:35.703Z,47.58
2019-04-25T14:27:09.988Z,47.65
2019-04-25T14:29:45.360Z,47.70
2019-04-25T14:32:20.401Z,47.71
2019-04-25T14:34:55.034Z,47.70
2019-04-25T14:37:33.618Z,47.69
2019-04-25T14:40:07.021Z,47.76
2019-04-25T14:42:41.251Z,47.73
2019-04-25T14:45:15.724Z,47.76
2019-04-25T14:47:50.142Z,47.73
2019-04-25T14:50:25.522Z,47.74
2019-04-25T14:53:00.076Z,47.69
2019-04-25T14:55:51.491Z,47.68
2019-04-25T14:58:28.049Z,47.68
2019-04-25T15:01:02.635Z,47.72
2019-04-25T15:03:37.055Z,47.68
2019-04-25T15:06:12.757Z,47.66
2019-04-25T15:08:46.852Z,47.68
2019-04-25T15:11:21.152Z,47.69
2019-04-25T15:13:55.305Z,47.71
2019-04-25T15:16:29.543Z,47.75
2019-04-25T15:19:03.796Z,47.76
2019-04-25T15:21:38.114Z,47.76
2019-04-25T15:24:12.160Z,47.73
2019-04-25T15:26:46.339Z,47.72
2019-04-25T15:29:20.551Z,47.73
2019-04-25T15:31:56.010Z,47.71
2019-04-25T15:34:36.695Z,47.68
2019-04-25T15:37:17.056Z,47.70
2019-04-25T15:39:58.277Z,44.87
2019-04-25T15:42:48.539Z,44.87
2019-04-25T15:45:47.622Z,45.06
2019-04-25T15:48:21.837Z,45.06
2019-04-25T15:50:57.235Z,45.17
2019-04-25T15:53:31.613Z,45.15
2019-04-25T15:56:06.275Z,45.26
2019-04-25T15:58:40.360Z,45.20
2019-04-25T16:01:15.097Z,45.19
2019-04-25T16:03:49.214Z,45.14
2019-04-25T16:06:23.686Z,45.10
2019-04-25T16:08:58.174Z,44.99
2019-04-25T16:11:33.676Z,45.00
2019-04-25T16:14:08.088Z,44.93
2019-04-25T16:16:42.695Z,44.92
2019-04-25T16:19:17.042Z,44.82
2019-04-25T16:21:56.415Z,44.84
2019-04-25T16:24:30.642Z,44.74
2019-04-25T16:27:06.520Z,44.78
2019-04-25T16:29:40.729Z,44.70
2019-04-25T16:32:20.716Z,44.74
2019-04-25T16:34:55.380Z,44.82
2019-04-25T16:37:30.303Z,44.85
2019-04-25T16:40:05.061Z,46.49
2019-04-25T16:42:39.823Z,44.62
2019-04-25T16:45:14.492Z,42.61
2019-04-25T16:47:49.906Z,40.95
2019-04-25T16:50:24.210Z,39.81
2019-04-25T16:52:59.135Z,38.80
2019-04-25T16:55:34.215Z,38.03
2019-04-25T16:58:09.131Z,37.43
2019-04-25T17:00:54.573Z,36.82
2019-04-25T17:03:31.209Z,36.60
2019-04-25T17:06:05.912Z,36.44
2019-04-25T17:08:40.435Z,36.89
2019-04-25T17:11:15.421Z,37.31
2019-04-25T17:13:58.961Z,38.01
2019-04-25T17:16:54.541Z,38.58
2019-04-25T17:19:46.915Z,39.38
2019-04-25T17:22:21.520Z,40.56
2019-04-25T17:24:55.737Z,41.52
2019-04-25T17:27:31.771Z,42.18
2019-04-25T17:30:06.242Z,42.88
2019-04-25T17:32:57.138Z,43.17
2019-04-25T17:35:44.182Z,43.51
2019-04-25T17:38:22.696Z,43.85
2019-04-25T17:40:57.124Z,43.97
2019-04-25T17:43:32.005Z,44.86
2019-04-25T17:46:10.970Z,45.08
2019-04-25T17:48:45.235Z,44.90
2019-04-25T17:51:19.621Z,44.51
2019-04-25T17:53:53.755Z,44.68
2019-04-25T17:56:28.149Z,44.87
2019-04-25T17:59:02.754Z,44.77
2019-04-25T18:01:37.960Z,44.87
2019-04-25T18:04:12.399Z,45.11
2019-04-25T18:06:46.650Z,45.38
2019-04-25T18:09:21.045Z,45.36
2019-04-25T18:11:55.527Z,45.56
2019-04-25T18:14:29.506Z,45.66
2019-04-25T18:17:03.866Z,45.77
2019-04-25T18:19:45.487Z,45.82
2019-04-25T18:22:39.150Z,45.93
2019-04-25T18:25:26.980Z,45.94
2019-04-25T18:28:13.338Z,46.09
2019-04-25T18:30:48.008Z,46.04
2019-04-25T18:33:29.459Z,46.20
2019-04-25T18:36:13.472Z,46.26
2019-04-25T18:39:06.598Z,46.57
2019-04-25T18:41:50.215Z,46.84
2019-04-25T18:44:25.404Z,47.27
2019-04-25T18:47:01.044Z,47.52
2019-04-25T18:49:37.627Z,47.85
2019-04-25T18:52:26.545Z,47.37
2019-04-25T18:55:09.155Z,46.63
2019-04-25T18:57:47.337Z,46.34
2019-04-25T19:00:43.735Z,46.68
2019-04-25T19:03:38.138Z,46.60
2019-04-25T19:06:15.912Z,47.14
2019-04-25T19:08:52.525Z,47.15
2019-04-25T19:11:26.397Z,47.23
2019-04-25T19:14:00.651Z,47.15
2019-04-25T19:16:34.820Z,47.02
2019-04-25T19:19:09.214Z,47.00
2019-04-25T19:21:45.473Z,46.94
2019-04-25T19:24:19.863Z,46.88
2019-04-25T19:26:53.958Z,46.84
2019-04-25T19:29:28.304Z,46.85
2019-04-25T19:32:02.429Z,47.06
2019-04-25T19:34:36.497Z,47.08
2019-04-25T19:37:10.769Z,47.33
2019-04-25T19:39:49.816Z,47.56
2019-04-25T19:42:33.189Z,47.49
2019-04-25T19:45:07.808Z,48.16
2019-04-25T19:47:42.995Z,47.93
2019-04-25T19:50:17.439Z,46.56
2019-04-25T19:52:52.198Z,45.57
2019-04-25T19:55:26.197Z,46.43
2019-04-25T19:58:00.406Z,46.45
2019-04-25T20:00:37.034Z,46.42
2019-04-25T20:03:16.875Z,46.30
2019-04-25T20:05:56.841Z,45.98
2019-04-25T20:08:48.709Z,45.85
2019-04-25T20:11:29.772Z,45.62
2019-04-25T20:14:04.564Z,44.65
2019-04-25T20:16:48.143Z,45.67
2019-04-25T20:19:22.198Z,45.94
2019-04-25T20:21:56.722Z,46.07
2019-04-25T20:24:31.662Z,46.41
2019-04-25T20:27:06.246Z,46.56
2019-04-25T20:29:40.391Z,46.80
2019-04-25T20:32:14.502Z,46.93
2019-04-25T20:34:49.047Z,46.02
2019-04-25T20:37:23.541Z,45.35
2019-04-25T20:39:58.033Z,46.40
2019-04-25T20:42:32.400Z,47.27
2019-04-25T20:45:07.086Z,47.71
2019-04-25T20:47:41.352Z,47.08
2019-04-25T20:50:16.695Z,47.30
2019-04-25T20:52:51.046Z,47.37
2019-04-25T20:55:26.072Z,47.43
2019-04-25T20:58:00.005Z,46.16
2019-04-25T21:00:44.986Z,46.38
2019-04-25T21:03:19.485Z,47.51
2019-04-25T21:05:57.170Z,47.52
2019-04-25T21:08:31.525Z,47.61
2019-04-25T21:11:05.826Z,47.56
2019-04-25T21:13:57.229Z,47.54
2019-04-25T21:16:56.490Z,47.27
2019-04-25T21:19:33.173Z,46.59
2019-04-25T21:22:07.671Z,45.76
2019-04-25T21:24:41.956Z,47.48
2019-04-25T21:27:16.873Z,47.27
2019-04-25T21:29:52.133Z,47.33
2019-04-25T21:32:26.435Z,47.20
2019-04-25T21:35:01.291Z,47.16
2019-04-25T21:37:37.328Z,46.84
2019-04-25T21:40:18.852Z,46.66
2019-04-25T21:43:01.433Z,45.73
2019-04-25T21:45:36.439Z,46.01
2019-04-25T21:48:10.935Z,47.20
2019-04-25T21:50:45.400Z,47.38
2019-04-25T21:53:19.590Z,46.94
2019-04-25T21:55:54.471Z,46.75
2019-04-25T21:58:30.294Z,46.54
2019-04-25T22:01:18.458Z,46.83
2019-04-25T22:03:53.007Z,46.87
2019-04-25T22:06:28.581Z,45.70
2019-04-25T22:09:03.240Z,46.95
2019-04-25T22:11:38.963Z,47.98
2019-04-25T22:14:13.818Z,47.39
2019-04-25T22:16:48.588Z,47.14
2019-04-25T22:19:23.437Z,46.99
2019-04-25T22:21:58.563Z,46.85
2019-04-25T22:24:33.234Z,46.84
2019-04-25T22:27:10.868Z,46.02
2019-04-25T22:29:47.653Z,46.31
2019-04-25T22:32:55.859Z,49.00
2019-04-25T22:35:43.879Z,49.53
2019-04-25T22:38:18.249Z,50.11
2019-04-25T22:40:52.578Z,50.67
2019-04-25T22:43:27.690Z,51.14
2019-04-25T22:46:02.261Z,51.44
2019-04-25T22:48:51.709Z,51.31
2019-04-25T22:51:25.868Z,50.51
2019-04-25T22:54:00.975Z,50.18
2019-04-25T22:56:36.025Z,50.73
2019-04-25T22:59:11.157Z,50.95
2019-04-25T23:02:16.338Z,49.91
2019-04-25T23:05:12.160Z,49.20
2019-04-25T23:07:44.700Z,48.58
2019-04-25T23:10:19.454Z,48.18
2019-04-25T23:12:53.930Z,47.04
2019-04-25T23:15:28.115Z,48.35
2019-04-25T23:18:02.897Z,50.24
2019-04-25T23:20:38.334Z,50.67
2019-04-25T23:23:13.800Z,50.95
2019-04-25T23:26:03.536Z,51.48
2019-04-25T23:28:41.782Z,51.85
2019-04-25T23:31:22.891Z,52.14
2019-04-25T23:33:57.060Z,51.73
2019-04-25T23:36:31.192Z,51.22
2019-04-25T23:39:09.441Z,52.94
2019-04-25T23:41:44.098Z,53.82
2019-04-25T23:44:18.460Z,54.00
2019-04-25T23:46:53.234Z,54.41
2019-04-25T23:49:27.399Z,54.55
2019-04-25T23:52:01.897Z,54.41
2019-04-25T23:54:35.963Z,54.57
2019-04-25T23:57:11.066Z,53.51
2019-04-25T23:59:46.647Z,53.30
